This is the latest recevied weather packets stored in our database for station/object KR4CWL-13. If no packets are shown the sender has not sent any weather packets the latest 10 day(s).
| Time | Temp. | Humidity | Pressure | Rain* | Wind** | Luminosity | Snow |
|---|---|---|---|---|---|---|---|
| 1777649033 | 14.44° C | 64% | 1008.8 hPa | 0 mm | - | - | - |
| 1777648433 | 12.78° C | 66% | 1008.8 hPa | 0 mm | - | - | - |
| 1777647833 | 12.78° C | 66% | 1008.8 hPa | 0 mm | - | - | - |
| 1777647233 | 13.89° C | 63% | 1008.5 hPa | 0 mm | - | - | - |
| 1777646633 | 13.89° C | 65% | 1008.5 hPa | 0 mm | - | - | - |
| 1777646033 | 13.33° C | 64% | 1008.5 hPa | 0 mm | - | - | - |
| 1777645433 | 13.33° C | 65% | 1008.5 hPa | 0 mm | - | - | - |
| 1777644833 | 12.78° C | 66% | 1008.5 hPa | 0 mm | - | - | - |
| 1777644233 | 11.67° C | 69% | 1008.5 hPa | 0 mm | - | - | - |
| 1777643633 | 11.67° C | 71% | 1008.5 hPa | 0 mm | - | - | - |
| 1777643033 | 11.11° C | 72% | 1008.8 hPa | 0 mm | - | - | - |
| 1777642433 | 11.11° C | 73% | 1008.5 hPa | 0 mm | - | - | - |
| 1777641832 | 11.11° C | 73% | 1008.5 hPa | 0 mm | - | - | - |
| 1777641232 | 11.11° C | 74% | 1008.5 hPa | 0 mm | - | - | - |
| 1777640632 | 11.11° C | 73% | 1008.8 hPa | 0 mm | - | - | - |
| 1777640032 | 11.11° C | 75% | 1008.5 hPa | 0 mm | - | - | - |
| 1777639432 | 11.11° C | 75% | 1008.8 hPa | 0 mm | - | - | - |
| 1777638832 | 11.11° C | 74% | 1008.5 hPa | 0 mm | - | - | - |
| 1777638232 | 10.56° C | 74% | 1008.5 hPa | 0 mm | - | - | - |
| 1777637632 | 10.56° C | 75% | 1008.5 hPa | 0 mm | - | - | - |
| 1777637032 | 10.56° C | 75% | 1008.8 hPa | 0 mm | - | - | - |
| 1777636432 | 10.56° C | 73% | 1008.8 hPa | 0 mm | - | - | - |
| 1777635832 | 10.56° C | 74% | 1008.5 hPa | 0 mm | - | - | - |
| 1777635232 | 10.56° C | 73% | 1008.5 hPa | 0 mm | - | - | - |
| 1777634632 | 10.56° C | 72% | 1008.1 hPa | 0 mm | - | - | - |
* Rain since midnight (hover to see other rain measurements)
** Current wind speed in m/s (hover to see current wind gust speed)